Time,TemperatureF,DewpointF,PressureIn,WindDirection,WindDirectionDegrees,WindSpeedMPH,WindSpeedGustMPH,Humidity,HourlyPrecipIn,Conditions,Clouds,dailyrainin,SolarRadiationWatts/m^2,SoftwareType,DateUTC
2013-03-23 00:00:00,24.2,19.2,30.03,NNE,15,0.0,2.0,81,0.00,,---,0.00,0.00,VWS V14.00,2013-03-23 04:00:00,
2013-03-23 00:05:00,24.1,19.1,30.03,NNE,15,0.0,2.0,81,0.00,,---,0.00,0.00,VWS V14.00,2013-03-23 04:05:00,
2013-03-23 00:10:00,23.8,18.8,30.03,NNE,15,0.0,2.0,81,0.00,,---,0.00,0.00,VWS V14.00,2013-03-23 04:10:00,
2013-03-23 00:15:00,23.7,19.0,30.03,NNE,15,0.0,2.0,82,0.00,,---,0.00,0.00,VWS V14.00,2013-03-23 04:15:00,
2013-03-23 00:20:00,23.8,19.1,30.03,NNE,15,0.0,2.0,82,0.00,,---,0.00,0.00,VWS V14.00,2013-03-23 04:20:00,
2013-03-23 00:25:00,23.5,18.5,30.03,NNE,15,0.0,2.0,81,0.00,,---,0.00,0.00,VWS V14.00,2013-03-23 04:25:00,
2013-03-23 00:30:00,23.1,18.4,30.03,NNE,15,0.0,2.0,82,0.00,,---,0.00,0.00,VWS V14.00,2013-03-23 04:30:00,
2013-03-23 00:35:00,22.8,18.4,30.03,NNE,15,0.0,0.0,83,0.00,,---,0.00,0.00,VWS V14.00,2013-03-23 04:35:00,
2013-03-23 00:40:00,22.8,19.0,30.03,NNE,15,0.0,0.0,85,0.00,,---,0.00,0.00,VWS V14.00,2013-03-23 04:40:00,
2013-03-23 00:45:00,22.8,19.0,30.03,NNE,15,0.0,0.0,85,0.00,,---,0.00,0.00,VWS V14.00,2013-03-23 04:45:00,
2013-03-23 00:50:00,22.7,18.6,30.02,NNE,15,0.0,0.0,84,0.00,,---,0.00,0.00,VWS V14.00,2013-03-23 04:50:00,
2013-03-23 00:55:00,22.6,18.5,30.02,NNE,15,0.0,0.0,84,0.00,,---,0.00,0.00,VWS V14.00,2013-03-23 04:55:00,
2013-03-23 01:00:00,22.5,18.4,30.02,NNE,15,0.0,0.0,84,0.00,,---,0.00,0.00,VWS V14.00,2013-03-23 05:00:00,
2013-03-23 01:05:00,22.4,18.3,30.02,NNE,15,0.0,0.0,84,0.00,,---,0.00,0.00,VWS V14.00,2013-03-23 05:05:00,
2013-03-23 01:10:00,22.3,18.2,30.02,NNE,15,0.0,0.0,84,0.00,,---,0.00,0.00,VWS V14.00,2013-03-23 05:10:00,
2013-03-23 01:15:00,22.1,18.0,30.02,NNE,15,0.0,0.0,84,0.00,,---,0.00,0.00,VWS V14.00,2013-03-23 05:15:00,
2013-03-23 01:20:00,22.0,18.2,30.02,NNE,15,0.0,0.0,85,0.00,,---,0.00,0.00,VWS V14.00,2013-03-23 05:20:00,
2013-03-23 01:25:00,21.9,18.1,30.02,NNE,15,0.0,0.0,85,0.00,,---,0.00,0.00,VWS V14.00,2013-03-23 05:25:00,
2013-03-23 01:30:00,21.7,17.9,30.02,NNE,15,0.0,0.0,85,0.00,,---,0.00,0.00,VWS V14.00,2013-03-23 05:30:00,
2013-03-23 01:35:00,21.6,17.8,30.03,NNE,15,0.0,0.0,85,0.00,,---,0.00,0.00,VWS V14.00,2013-03-23 05:35:00,
2013-03-23 01:40:00,21.5,18.0,30.02,NNE,15,0.0,0.0,86,0.00,,---,0.00,0.00,VWS V14.00,2013-03-23 05:40:00,
2013-03-23 01:45:00,21.3,17.8,30.03,NNE,15,0.0,0.0,86,0.00,,---,0.00,0.00,VWS V14.00,2013-03-23 05:45:00,
2013-03-23 01:50:00,21.2,17.7,30.03,NNE,15,0.0,0.0,86,0.00,,---,0.00,0.00,VWS V14.00,2013-03-23 05:50:00,
2013-03-23 01:55:00,21.0,17.5,30.03,NNE,15,0.0,0.0,86,0.00,,---,0.00,0.00,VWS V14.00,2013-03-23 05:55:00,
2013-03-23 02:00:00,20.9,17.6,30.03,NNE,15,0.0,0.0,87,0.00,,---,0.00,0.00,VWS V14.00,2013-03-23 06:00:00,
2013-03-23 02:05:00,20.8,17.5,30.03,NNE,15,0.0,0.0,87,0.00,,---,0.00,0.00,VWS V14.00,2013-03-23 06:05:00,
2013-03-23 02:10:00,20.7,17.7,30.03,NNE,15,0.0,0.0,88,0.00,,---,0.00,0.00,VWS V14.00,2013-03-23 06:10:00,
2013-03-23 02:15:00,20.7,17.7,30.03,NNE,15,0.0,0.0,88,0.00,,---,0.00,0.00,VWS V14.00,2013-03-23 06:15:00,
2013-03-23 02:20:00,20.7,18.0,30.02,NNE,15,0.0,3.0,89,0.00,,---,0.00,0.00,VWS V14.00,2013-03-23 06:20:00,
2013-03-23 02:26:00,20.7,17.7,30.03,NNE,15,0.0,3.0,88,0.00,,---,0.00,0.00,VWS V14.00,2013-03-23 06:26:00,
2013-03-23 02:30:00,20.4,17.2,30.03,NNE,15,0.0,3.0,87,0.00,,---,0.00,0.00,VWS V14.00,2013-03-23 06:30:00,
2013-03-23 02:31:00,20.5,17.2,30.03,NNE,15,0.0,3.0,87,0.00,,---,0.00,0.00,VWS V14.00,2013-03-23 06:31:00,
2013-03-23 02:36:00,20.2,17.2,30.02,NNE,15,0.0,0.0,88,0.00,,---,0.00,0.00,VWS V14.00,2013-03-23 06:36:00,
2013-03-23 02:41:00,19.9,16.9,30.02,NNE,15,0.0,2.0,88,0.00,,---,0.00,0.00,VWS V14.00,2013-03-23 06:41:00,
2013-03-23 02:46:00,19.8,17.1,30.03,NNE,15,0.0,2.0,89,0.00,,---,0.00,0.00,VWS V14.00,2013-03-23 06:46:00,
2013-03-23 02:51:00,19.7,17.0,30.03,NNE,15,0.0,2.0,89,0.00,,---,0.00,0.00,VWS V14.00,2013-03-23 06:51:00,
2013-03-23 02:56:00,19.5,16.8,30.02,NNE,15,0.0,2.0,89,0.00,,---,0.00,0.00,VWS V14.00,2013-03-23 06:56:00,
2013-03-23 03:00:00,19.5,17.0,30.02,NNE,15,0.0,2.0,90,0.00,,---,0.00,0.00,VWS V14.00,2013-03-23 07:00:00,
2013-03-23 03:01:00,19.5,17.0,30.02,NNE,15,0.0,0.0,90,0.00,,---,0.00,0.00,VWS V14.00,2013-03-23 07:01:00,
2013-03-23 03:06:00,19.5,17.0,30.02,NNE,15,0.0,0.0,90,0.00,,---,0.00,0.00,VWS V14.00,2013-03-23 07:06:00,
2013-03-23 03:11:00,19.6,17.4,30.02,NNE,15,0.0,0.0,91,0.00,,---,0.00,0.00,VWS V14.00,2013-03-23 07:11:00,
2013-03-23 03:16:00,19.7,17.5,30.02,NNE,15,0.0,0.0,91,0.00,,---,0.00,0.00,VWS V14.00,2013-03-23 07:16:00,
2013-03-23 03:21:00,19.8,17.6,30.02,NNE,15,0.0,0.0,91,0.00,,---,0.00,0.00,VWS V14.00,2013-03-23 07:21:00,
2013-03-23 03:27:00,19.8,17.9,30.02,NNE,15,0.0,0.0,92,0.00,,---,0.00,0.00,VWS V14.00,2013-03-23 07:27:00,
2013-03-23 03:30:00,19.9,18.0,30.02,NNE,15,0.0,0.0,92,0.00,,---,0.00,0.00,VWS V14.00,2013-03-23 07:30:00,
2013-03-23 03:32:00,19.9,18.0,30.01,NNE,15,0.0,0.0,92,0.00,,---,0.00,0.00,VWS V14.00,2013-03-23 07:32:00,
2013-03-23 03:37:00,19.9,17.7,30.01,NNE,15,0.0,0.0,91,0.00,,---,0.00,0.00,VWS V14.00,2013-03-23 07:37:00,
2013-03-23 03:42:00,19.9,18.0,30.01,NNE,15,0.0,0.0,92,0.00,,---,0.00,0.00,VWS V14.00,2013-03-23 07:42:00,
2013-03-23 03:47:00,19.8,17.9,30.01,NNE,15,0.0,0.0,92,0.00,,---,0.00,0.00,VWS V14.00,2013-03-23 07:47:00,
2013-03-23 03:52:00,19.9,18.0,30.01,NNE,15,0.0,0.0,92,0.00,,---,0.00,0.00,VWS V14.00,2013-03-23 07:52:00,
2013-03-23 03:57:00,19.9,18.0,30.01,NNE,15,0.0,0.0,92,0.00,,---,0.00,0.00,VWS V14.00,2013-03-23 07:57:00,
2013-03-23 04:00:00,19.9,18.0,30.01,NNE,15,0.0,0.0,92,0.00,,---,0.00,0.00,VWS V14.00,2013-03-23 08:00:00,
2013-03-23 04:02:00,19.9,18.0,30.01,NNE,15,0.0,0.0,92,0.00,,---,0.00,0.00,VWS V14.00,2013-03-23 08:02:00,
2013-03-23 04:07:00,19.8,17.9,30.01,NNE,15,0.0,0.0,92,0.00,,---,0.00,0.00,VWS V14.00,2013-03-23 08:07:00,
2013-03-23 04:12:00,19.9,18.0,30.01,NNE,15,0.0,0.0,92,0.00,,---,0.00,0.00,VWS V14.00,2013-03-23 08:12:00,
2013-03-23 04:17:00,19.8,17.9,30.01,NNE,15,0.0,0.0,92,0.00,,---,0.00,0.00,VWS V14.00,2013-03-23 08:17:00,
2013-03-23 04:22:00,19.7,17.8,30.01,NNE,15,0.0,0.0,92,0.00,,---,0.00,0.00,VWS V14.00,2013-03-23 08:22:00,
2013-03-23 04:27:00,19.5,17.3,30.01,NNE,15,0.0,0.0,91,0.00,,---,0.00,0.00,VWS V14.00,2013-03-23 08:27:00,
2013-03-23 04:30:00,19.4,17.2,30.01,NNE,15,0.0,0.0,91,0.00,,---,0.00,0.00,VWS V14.00,2013-03-23 08:30:00,
2013-03-23 04:32:00,19.3,17.1,30.01,NNE,15,0.0,0.0,91,0.00,,---,0.00,0.00,VWS V14.00,2013-03-23 08:32:00,
2013-03-23 04:37:00,19.1,16.9,30.01,NNE,15,0.0,0.0,91,0.00,,---,0.00,0.00,VWS V14.00,2013-03-23 08:37:00,
2013-03-23 04:42:00,18.9,17.0,30.00,NNE,15,0.0,0.0,92,0.00,,---,0.00,0.00,VWS V14.00,2013-03-23 08:42:00,
2013-03-23 04:47:00,18.8,16.6,30.00,NNE,15,0.0,0.0,91,0.00,,---,0.00,0.00,VWS V14.00,2013-03-23 08:47:00,
2013-03-23 04:52:00,18.7,16.8,30.00,NNE,15,0.0,0.0,92,0.00,,---,0.00,0.00,VWS V14.00,2013-03-23 08:52:00,
2013-03-23 04:57:00,18.8,16.9,30.00,NNE,15,0.0,0.0,92,0.00,,---,0.00,0.00,VWS V14.00,2013-03-23 08:57:00,
2013-03-23 05:00:00,18.9,17.2,30.00,NNE,15,0.0,0.0,93,0.00,,---,0.00,0.00,VWS V14.00,2013-03-23 09:00:00,
2013-03-23 05:02:00,18.9,17.2,30.00,NNE,15,0.0,0.0,93,0.00,,---,0.00,0.00,VWS V14.00,2013-03-23 09:02:00,
2013-03-23 05:08:00,18.8,16.9,30.00,NNE,15,0.0,0.0,92,0.00,,---,0.00,0.00,VWS V14.00,2013-03-23 09:08:00,
2013-03-23 05:13:00,18.7,16.8,30.00,NNE,15,0.0,0.0,92,0.00,,---,0.00,0.00,VWS V14.00,2013-03-23 09:13:00,
2013-03-23 05:18:00,18.6,16.7,30.00,NNE,15,0.0,0.0,92,0.00,,---,0.00,0.00,VWS V14.00,2013-03-23 09:18:00,
2013-03-23 05:23:00,18.4,16.5,30.00,NNE,15,0.0,0.0,92,0.00,,---,0.00,0.00,VWS V14.00,2013-03-23 09:23:00,
2013-03-23 05:28:00,18.2,16.3,30.00,NNE,15,0.0,0.0,92,0.00,,---,0.00,0.00,VWS V14.00,2013-03-23 09:28:00,
2013-03-23 05:30:00,18.0,15.8,30.00,NNE,15,0.0,0.0,91,0.00,,---,0.00,0.00,VWS V14.00,2013-03-23 09:30:00,
2013-03-23 05:33:00,17.9,16.0,30.00,NNE,15,0.0,0.0,92,0.00,,---,0.00,0.00,VWS V14.00,2013-03-23 09:33:00,
2013-03-23 05:38:00,17.9,16.0,30.00,NNE,15,0.0,0.0,92,0.00,,---,0.00,0.00,VWS V14.00,2013-03-23 09:38:00,
2013-03-23 05:43:00,18.0,16.1,30.00,NNE,15,0.0,0.0,92,0.00,,---,0.00,0.00,VWS V14.00,2013-03-23 09:43:00,
2013-03-23 05:48:00,18.0,16.3,30.00,NNE,15,0.0,0.0,93,0.00,,---,0.00,0.00,VWS V14.00,2013-03-23 09:48:00,
2013-03-23 05:53:00,18.1,16.4,30.00,NNE,15,0.0,0.0,93,0.00,,---,0.00,0.00,VWS V14.00,2013-03-23 09:53:00,
2013-03-23 05:58:00,18.0,16.3,30.01,NNE,15,0.0,0.0,93,0.00,,---,0.00,0.00,VWS V14.00,2013-03-23 09:58:00,
2013-03-23 06:00:00,18.1,16.4,30.01,NNE,15,0.0,0.0,93,0.00,,---,0.00,0.00,VWS V14.00,2013-03-23 10:00:00,
2013-03-23 06:03:00,18.1,16.4,30.01,NNE,15,0.0,0.0,93,0.00,,---,0.00,0.00,VWS V14.00,2013-03-23 10:03:00,
2013-03-23 06:08:00,18.1,16.4,30.01,NNE,15,0.0,0.0,93,0.00,,---,0.00,0.00,VWS V14.00,2013-03-23 10:08:00,
2013-03-23 06:13:00,17.7,15.8,30.01,NNE,15,0.0,0.0,92,0.00,,---,0.00,0.00,VWS V14.00,2013-03-23 10:13:00,
2013-03-23 06:18:00,17.3,15.1,30.02,NNE,15,0.0,0.0,91,0.00,,---,0.00,0.00,VWS V14.00,2013-03-23 10:18:00,
2013-03-23 06:23:00,17.3,15.4,30.02,NNE,15,0.0,0.0,92,0.00,,---,0.00,0.00,VWS V14.00,2013-03-23 10:23:00,
2013-03-23 06:28:00,17.2,15.3,30.02,NNE,15,0.0,0.0,92,0.00,,---,0.00,0.00,VWS V14.00,2013-03-23 10:28:00,
2013-03-23 06:30:00,17.1,15.2,30.02,NNE,15,0.0,0.0,92,0.00,,---,0.00,0.00,VWS V14.00,2013-03-23 10:30:00,
2013-03-23 06:33:00,17.1,15.2,30.02,NNE,15,0.0,0.0,92,0.00,,---,0.00,0.00,VWS V14.00,2013-03-23 10:33:00,
2013-03-23 06:38:00,16.9,15.0,30.02,NNE,15,0.0,1.0,92,0.00,,---,0.00,0.00,VWS V14.00,2013-03-23 10:38:00,
2013-03-23 06:43:00,16.9,15.0,30.02,NNE,15,0.0,1.0,92,0.00,,---,0.00,0.00,VWS V14.00,2013-03-23 10:43:00,
2013-03-23 06:48:00,17.2,15.5,30.02,NNE,15,0.0,1.0,93,0.00,,---,0.00,0.00,VWS V14.00,2013-03-23 10:48:00,
2013-03-23 06:53:00,17.5,15.8,30.02,NNE,15,0.0,2.0,93,0.00,,---,0.00,0.00,VWS V14.00,2013-03-23 10:53:00,
2013-03-23 06:58:00,17.6,15.9,30.02,NNE,15,0.0,2.0,93,0.00,,---,0.00,0.00,VWS V14.00,2013-03-23 10:58:00,
2013-03-23 07:00:00,17.6,15.9,30.02,NNE,15,0.0,2.0,93,0.00,,---,0.00,0.00,VWS V14.00,2013-03-23 11:00:00,
2013-03-23 07:03:00,17.6,15.9,30.02,NNE,15,0.0,0.0,93,0.00,,---,0.00,0.00,VWS V14.00,2013-03-23 11:03:00,
2013-03-23 07:08:00,17.6,15.9,30.02,NNE,15,0.0,0.0,93,0.00,,---,0.00,0.00,VWS V14.00,2013-03-23 11:08:00,
2013-03-23 07:13:00,17.7,16.0,30.02,NNE,15,0.0,0.0,93,0.00,,---,0.00,0.00,VWS V14.00,2013-03-23 11:13:00,
2013-03-23 07:18:00,17.7,16.0,30.02,NNE,15,0.0,0.0,93,0.00,,---,0.00,5.00,VWS V14.00,2013-03-23 11:18:00,
2013-03-23 07:23:00,17.7,16.0,30.03,NNE,15,0.0,0.0,93,0.00,,---,0.00,7.00,VWS V14.00,2013-03-23 11:23:00,
2013-03-23 07:28:00,17.7,16.0,30.03,NNE,15,0.0,0.0,93,0.00,,---,0.00,11.00,VWS V14.00,2013-03-23 11:28:00,
2013-03-23 07:30:00,17.7,15.8,30.03,NNE,15,0.0,0.0,92,0.00,,---,0.00,14.00,VWS V14.00,2013-03-23 11:30:00,
2013-03-23 07:33:00,17.6,15.7,30.03,NNE,15,0.0,0.0,92,0.00,,---,0.00,16.00,VWS V14.00,2013-03-23 11:33:00,
2013-03-23 07:38:00,17.6,15.7,30.02,NNE,15,0.0,0.0,92,0.00,,---,0.00,19.00,VWS V14.00,2013-03-23 11:38:00,
2013-03-23 07:43:00,17.6,15.9,30.02,NNE,15,0.0,0.0,93,0.00,,---,0.00,25.00,VWS V14.00,2013-03-23 11:43:00,
2013-03-23 07:48:00,17.7,16.0,30.03,NNE,15,0.0,0.0,93,0.00,,---,0.00,28.00,VWS V14.00,2013-03-23 11:48:00,
2013-03-23 07:53:00,17.7,16.0,30.03,NNE,15,0.0,0.0,93,0.00,,---,0.00,30.00,VWS V14.00,2013-03-23 11:53:00,
2013-03-23 07:58:00,17.7,16.0,30.03,NNE,15,0.0,0.0,93,0.00,,---,0.00,35.00,VWS V14.00,2013-03-23 11:58:00,
2013-03-23 08:00:00,17.7,16.0,30.03,NNE,15,0.0,0.0,93,0.00,,---,0.00,37.00,VWS V14.00,2013-03-23 12:00:00,
2013-03-23 08:03:00,17.8,16.1,30.03,NNE,15,0.0,0.0,93,0.00,,---,0.00,44.00,VWS V14.00,2013-03-23 12:03:00,
2013-03-23 08:08:00,17.9,16.2,30.04,NNE,15,0.0,0.0,93,0.00,,---,0.00,47.00,VWS V14.00,2013-03-23 12:08:00,
2013-03-23 08:13:00,18.3,16.6,30.04,NNE,15,0.0,0.0,93,0.00,,---,0.00,58.00,VWS V14.00,2013-03-23 12:13:00,
2013-03-23 08:19:00,18.9,17.5,30.04,NNE,15,0.0,0.0,94,0.00,,---,0.00,72.00,VWS V14.00,2013-03-23 12:19:00,
2013-03-23 08:24:00,19.4,18.0,30.04,NNE,15,0.0,0.0,94,0.00,,---,0.00,62.00,VWS V14.00,2013-03-23 12:24:00,
2013-03-23 08:29:00,19.9,18.5,30.04,NNE,15,0.0,0.0,94,0.00,,---,0.00,91.00,VWS V14.00,2013-03-23 12:29:00,
2013-03-23 08:30:00,20.2,18.8,30.04,NNE,15,0.0,1.0,94,0.00,,---,0.00,111.00,VWS V14.00,2013-03-23 12:30:00,
2013-03-23 08:34:00,20.4,19.0,30.05,NNE,15,0.0,1.0,94,0.00,,---,0.00,102.00,VWS V14.00,2013-03-23 12:34:00,
2013-03-23 08:39:00,21.0,19.5,30.05,NNE,15,0.0,1.0,94,0.00,,---,0.00,148.00,VWS V14.00,2013-03-23 12:39:00,
2013-03-23 08:44:00,21.7,20.2,30.05,NW,309,0.0,2.0,94,0.00,,---,0.00,211.00,VWS V14.00,2013-03-23 12:44:00,
2013-03-23 08:49:00,22.4,21.2,30.05,NW,306,0.0,2.0,95,0.00,,---,0.00,232.00,VWS V14.00,2013-03-23 12:49:00,
2013-03-23 08:54:00,23.2,21.7,30.05,West,279,0.0,2.0,94,0.00,,---,0.00,262.00,VWS V14.00,2013-03-23 12:54:00,
2013-03-23 08:59:00,23.9,22.4,30.05,West,279,2.0,2.0,94,0.00,,---,0.00,288.00,VWS V14.00,2013-03-23 12:59:00,
2013-03-23 09:00:00,24.1,22.4,30.05,West,279,0.0,2.0,93,0.00,,---,0.00,294.00,VWS V14.00,2013-03-23 13:00:00,
2013-03-23 09:04:00,24.5,22.8,30.05,West,279,0.0,1.0,93,0.00,,---,0.00,295.00,VWS V14.00,2013-03-23 13:04:00,
2013-03-23 09:09:00,25.3,23.3,30.05,West,279,1.0,2.0,92,0.00,,---,0.00,313.00,VWS V14.00,2013-03-23 13:09:00,
2013-03-23 09:14:00,26.1,23.8,30.05,West,273,0.0,2.0,91,0.00,,---,0.00,332.00,VWS V14.00,2013-03-23 13:14:00,
2013-03-23 09:19:00,26.9,24.1,30.05,West,265,0.0,4.0,89,0.00,,---,0.00,345.00,VWS V14.00,2013-03-23 13:19:00,
2013-03-23 09:24:00,27.6,24.5,30.06,West,261,0.0,4.0,88,0.00,,---,0.00,359.00,VWS V14.00,2013-03-23 13:24:00,
2013-03-23 09:29:00,28.5,25.1,30.05,SW,231,0.0,5.0,87,0.00,,---,0.00,374.00,VWS V14.00,2013-03-23 13:29:00,
2013-03-23 09:30:00,28.8,25.1,30.05,WSW,247,0.0,5.0,86,0.00,,---,0.00,383.00,VWS V14.00,2013-03-23 13:30:00,
2013-03-23 09:34:00,29.3,25.4,30.06,West,263,2.0,3.0,85,0.00,,---,0.00,392.00,VWS V14.00,2013-03-23 13:34:00,
2013-03-23 09:39:00,30.2,26.0,30.05,WSW,240,0.0,4.0,84,0.00,,---,0.00,408.00,VWS V14.00,2013-03-23 13:39:00,
2013-03-23 09:44:00,31.1,26.3,30.05,SSW,195,0.0,4.0,82,0.00,,---,0.00,431.00,VWS V14.00,2013-03-23 13:44:00,
2013-03-23 09:49:00,32.2,26.7,30.05,South,173,2.0,4.0,80,0.00,,---,0.00,448.00,VWS V14.00,2013-03-23 13:49:00,
2013-03-23 09:54:00,33.2,26.8,30.05,South,175,1.0,5.0,77,0.00,,---,0.00,438.00,VWS V14.00,2013-03-23 13:54:00,
2013-03-23 09:59:00,34.1,27.3,30.05,SSW,211,1.0,5.0,76,0.00,,---,0.00,401.00,VWS V14.00,2013-03-23 13:59:00,
2013-03-23 10:00:00,34.4,27.0,30.05,SW,232,0.0,5.0,74,0.00,,---,0.00,475.00,VWS V14.00,2013-03-23 14:00:00,
2013-03-23 10:04:00,34.7,26.6,30.05,WSW,247,2.0,4.0,72,0.00,,---,0.00,503.00,VWS V14.00,2013-03-23 14:04:00,
2013-03-23 10:09:00,35.1,27.7,30.05,SW,234,1.0,4.0,74,0.00,,---,0.00,506.00,VWS V14.00,2013-03-23 14:09:00,
2013-03-23 10:14:00,35.8,27.0,30.05,WSW,251,2.0,5.0,70,0.00,,---,0.00,529.00,VWS V14.00,2013-03-23 14:14:00,
2013-03-23 10:19:00,36.2,26.7,30.05,WSW,257,1.0,5.0,68,0.00,,---,0.00,461.00,VWS V14.00,2013-03-23 14:19:00,
2013-03-23 10:24:00,36.4,26.5,30.05,WSW,238,0.0,5.0,67,0.00,,---,0.00,563.00,VWS V14.00,2013-03-23 14:24:00,
2013-03-23 10:29:00,36.9,27.3,30.05,SW,215,0.0,6.0,68,0.00,,---,0.00,571.00,VWS V14.00,2013-03-23 14:29:00,
2013-03-23 10:30:00,37.1,26.8,30.05,SW,215,1.0,6.0,66,0.00,,---,0.00,575.00,VWS V14.00,2013-03-23 14:30:00,
2013-03-23 10:34:00,37.4,26.7,30.05,West,261,0.0,5.0,65,0.00,,---,0.00,555.00,VWS V14.00,2013-03-23 14:34:00,
2013-03-23 10:39:00,38.0,27.3,30.05,WSW,257,5.0,5.0,65,0.00,,---,0.00,603.00,VWS V14.00,2013-03-23 14:39:00,
2013-03-23 10:44:00,38.6,27.5,30.05,WNW,302,5.0,6.0,64,0.00,,---,0.00,617.00,VWS V14.00,2013-03-23 14:44:00,
2013-03-23 10:49:00,39.0,26.7,30.06,West,274,9.0,14.0,61,0.00,,---,0.00,640.00,VWS V14.00,2013-03-23 14:49:00,
2013-03-23 10:54:00,39.1,26.0,30.05,WNW,285,2.0,14.0,59,0.00,,---,0.00,664.00,VWS V14.00,2013-03-23 14:54:00,
2013-03-23 10:59:00,39.3,26.6,30.05,West,273,12.0,14.0,60,0.00,,---,0.00,670.00,VWS V14.00,2013-03-23 14:59:00,
2013-03-23 11:00:00,39.3,26.2,30.05,WSW,254,6.0,15.0,59,0.00,,---,0.00,670.00,VWS V14.00,2013-03-23 15:00:00,
2013-03-23 11:05:00,39.4,26.3,30.05,WSW,238,7.0,13.0,59,0.00,,---,0.00,708.00,VWS V14.00,2013-03-23 15:05:00,
2013-03-23 11:10:00,39.4,25.5,30.05,WSW,258,8.0,13.0,57,0.00,,---,0.00,742.00,VWS V14.00,2013-03-23 15:10:00,
2013-03-23 11:15:00,40.1,26.1,30.05,West,278,13.0,13.0,57,0.00,,---,0.00,751.00,VWS V14.00,2013-03-23 15:15:00,
2013-03-23 11:20:00,40.6,26.1,30.05,West,269,10.0,13.0,56,0.00,,---,0.00,747.00,VWS V14.00,2013-03-23 15:20:00,
2013-03-23 11:25:00,40.8,25.9,30.05,SW,230,0.0,13.0,55,0.00,,---,0.00,744.00,VWS V14.00,2013-03-23 15:25:00,
2013-03-23 11:30:00,40.9,25.5,30.05,WNW,292,6.0,15.0,54,0.00,,---,0.00,759.00,VWS V14.00,2013-03-23 15:30:00,
2013-03-23 11:35:00,41.1,24.8,30.05,West,279,6.0,12.0,52,0.00,,---,0.00,796.00,VWS V14.00,2013-03-23 15:35:00,
2013-03-23 11:40:00,40.9,24.6,30.04,West,268,5.0,12.0,52,0.00,,---,0.00,171.00,VWS V14.00,2013-03-23 15:40:00,
2013-03-23 11:45:00,40.7,24.5,30.04,SSW,213,6.0,12.0,52,0.00,,---,0.00,772.00,VWS V14.00,2013-03-23 15:45:00,
2013-03-23 11:50:00,41.2,24.0,30.04,NW,315,0.0,12.0,50,0.00,,---,0.00,761.00,VWS V14.00,2013-03-23 15:50:00,
2013-03-23 11:55:00,42.0,25.2,30.04,NW,311,0.0,12.0,51,0.00,,---,0.00,798.00,VWS V14.00,2013-03-23 15:55:00,
2013-03-23 12:00:00,42.4,25.1,30.03,WNW,288,5.0,12.0,50,0.00,,---,0.00,802.00,VWS V14.00,2013-03-23 16:00:00,
2013-03-23 12:05:00,42.4,24.6,30.03,SW,216,6.0,12.0,49,0.00,,---,0.00,838.00,VWS V14.00,2013-03-23 16:05:00,
2013-03-23 12:10:00,42.1,24.3,30.04,West,261,10.0,15.0,49,0.00,,---,0.00,817.00,VWS V14.00,2013-03-23 16:10:00,
2013-03-23 12:15:00,42.3,24.5,30.04,West,273,14.0,19.0,49,0.00,,---,0.00,847.00,VWS V14.00,2013-03-23 16:15:00,
2013-03-23 12:20:00,42.2,24.9,30.03,SW,229,4.0,19.0,50,0.00,,---,0.00,860.00,VWS V14.00,2013-03-23 16:20:00,
2013-03-23 12:25:00,42.4,24.6,30.03,West,271,13.0,19.0,49,0.00,,---,0.00,853.00,VWS V14.00,2013-03-23 16:25:00,
2013-03-23 12:30:00,42.5,24.7,30.03,WSW,254,8.0,19.0,49,0.00,,---,0.00,833.00,VWS V14.00,2013-03-23 16:30:00,
2013-03-23 12:35:00,42.8,25.5,30.03,SW,227,1.0,10.0,50,0.00,,---,0.00,844.00,VWS V14.00,2013-03-23 16:35:00,
2013-03-23 12:40:00,43.6,25.2,30.03,NW,312,6.0,14.0,48,0.00,,---,0.00,800.00,VWS V14.00,2013-03-23 16:40:00,
2013-03-23 12:45:00,43.4,25.0,30.03,West,279,4.0,14.0,48,0.00,,---,0.00,846.00,VWS V14.00,2013-03-23 16:45:00,
2013-03-23 12:50:00,43.6,25.2,30.02,WSW,246,3.0,14.0,48,0.00,,---,0.00,860.00,VWS V14.00,2013-03-23 16:50:00,
2013-03-23 12:55:00,43.9,25.5,30.02,WNW,298,8.0,15.0,48,0.00,,---,0.00,856.00,VWS V14.00,2013-03-23 16:55:00,
2013-03-23 13:00:00,43.9,24.0,30.02,West,273,6.0,15.0,45,0.00,,---,0.00,867.00,VWS V14.00,2013-03-23 17:00:00,
2013-03-23 13:05:00,44.1,25.2,30.02,North,355,1.0,10.0,47,0.00,,---,0.00,874.00,VWS V14.00,2013-03-23 17:05:00,
2013-03-23 13:10:00,44.6,24.6,30.02,West,271,2.0,10.0,45,0.00,,---,0.00,881.00,VWS V14.00,2013-03-23 17:10:00,
2013-03-23 13:15:00,44.5,24.0,30.02,WNW,298,1.0,10.0,44,0.00,,---,0.00,884.00,VWS V14.00,2013-03-23 17:15:00,
2013-03-23 13:20:00,44.3,23.2,30.02,West,259,5.0,13.0,43,0.00,,---,0.00,821.00,VWS V14.00,2013-03-23 17:20:00,
2013-03-23 13:25:00,44.1,24.1,30.02,WNW,300,7.0,13.0,45,0.00,,---,0.00,872.00,VWS V14.00,2013-03-23 17:25:00,
2013-03-23 13:30:00,44.5,24.0,30.02,SW,227,4.0,13.0,44,0.00,,---,0.00,900.00,VWS V14.00,2013-03-23 17:30:00,
2013-03-23 13:35:00,44.7,23.6,30.01,West,265,11.0,15.0,43,0.00,,---,0.00,877.00,VWS V14.00,2013-03-23 17:35:00,
2013-03-23 13:40:00,44.5,23.4,30.01,West,259,10.0,15.0,43,0.00,,---,0.00,858.00,VWS V14.00,2013-03-23 17:40:00,
2013-03-23 13:45:00,44.6,23.5,30.01,WNW,303,6.0,15.0,43,0.00,,---,0.00,879.00,VWS V14.00,2013-03-23 17:45:00,
2013-03-23 13:50:00,45.0,25.0,30.01,NNW,338,2.0,15.0,45,0.00,,---,0.00,875.00,VWS V14.00,2013-03-23 17:50:00,
2013-03-23 13:55:00,45.4,23.7,30.01,NNW,342,6.0,15.0,42,0.00,,---,0.00,888.00,VWS V14.00,2013-03-23 17:55:00,
2013-03-23 14:00:00,45.6,23.9,30.01,WNW,290,7.0,15.0,42,0.00,,---,0.00,858.00,VWS V14.00,2013-03-23 18:00:00,
2013-03-23 14:05:00,45.2,22.9,30.00,NNE,21,2.0,10.0,41,0.00,,---,0.00,858.00,VWS V14.00,2013-03-23 18:05:00,
2013-03-23 14:10:00,45.6,23.9,30.01,West,275,5.0,13.0,42,0.00,,---,0.00,875.00,VWS V14.00,2013-03-23 18:10:00,
2013-03-23 14:16:00,45.7,23.4,30.00,WSW,238,0.0,13.0,41,0.00,,---,0.00,853.00,VWS V14.00,2013-03-23 18:16:00,
2013-03-23 14:21:00,46.4,25.1,30.00,NW,309,2.0,19.0,43,0.00,,---,0.00,886.00,VWS V14.00,2013-03-23 18:21:00,
2013-03-23 14:26:00,46.7,24.8,30.00,WNW,291,5.0,19.0,42,0.00,,---,0.00,926.00,VWS V14.00,2013-03-23 18:26:00,
2013-03-23 14:30:00,46.3,24.5,30.00,NW,308,12.0,19.0,42,0.00,,---,0.00,863.00,VWS V14.00,2013-03-23 18:30:00,
2013-03-23 14:31:00,46.3,24.5,30.00,NW,308,12.0,19.0,42,0.00,,---,0.00,863.00,VWS V14.00,2013-03-23 18:31:00,
2013-03-23 14:36:00,46.6,24.8,30.00,NW,310,11.0,15.0,42,0.00,,---,0.00,833.00,VWS V14.00,2013-03-23 18:36:00,
2013-03-23 14:41:00,46.6,24.8,30.00,West,271,1.0,15.0,42,0.00,,---,0.00,835.00,VWS V14.00,2013-03-23 18:41:00,
2013-03-23 14:46:00,46.2,24.4,30.00,West,263,8.0,15.0,42,0.00,,---,0.00,763.00,VWS V14.00,2013-03-23 18:46:00,
2013-03-23 14:51:00,46.1,24.9,30.00,NW,309,2.0,15.0,43,0.00,,---,0.00,840.00,VWS V14.00,2013-03-23 18:51:00,
2013-03-23 14:57:00,46.2,25.0,30.00,WSW,255,6.0,15.0,43,0.00,,---,0.00,635.00,VWS V14.00,2013-03-23 18:57:00,
2013-03-23 15:00:00,46.1,24.3,29.99,WSW,257,2.0,15.0,42,0.00,,---,0.00,796.00,VWS V14.00,2013-03-23 19:00:00,
2013-03-23 15:01:00,46.2,23.8,29.99,West,261,6.0,6.0,41,0.00,,---,0.00,788.00,VWS V14.00,2013-03-23 19:01:00,
2013-03-23 15:07:00,46.8,23.8,29.99,WNW,287,4.0,8.0,40,0.00,,---,0.00,786.00,VWS V14.00,2013-03-23 19:07:00,
2013-03-23 15:12:00,47.0,25.1,29.99,West,259,5.0,14.0,42,0.00,,---,0.00,759.00,VWS V14.00,2013-03-23 19:12:00,
2013-03-23 15:17:00,47.2,25.3,29.99,NNW,339,5.0,15.0,42,0.00,,---,0.00,751.00,VWS V14.00,2013-03-23 19:17:00,
2013-03-23 15:22:00,47.4,23.7,29.99,NW,304,7.0,15.0,39,0.00,,---,0.00,754.00,VWS V14.00,2013-03-23 19:22:00,
2013-03-23 15:27:00,47.8,23.4,29.98,West,275,9.0,15.0,38,0.00,,---,0.00,731.00,VWS V14.00,2013-03-23 19:27:00,
2013-03-23 15:30:00,47.5,23.8,29.98,WNW,299,7.0,15.0,39,0.00,,---,0.00,715.00,VWS V14.00,2013-03-23 19:30:00,
2013-03-23 15:32:00,47.5,24.4,29.99,West,268,6.0,13.0,40,0.00,,---,0.00,712.00,VWS V14.00,2013-03-23 19:32:00,
2013-03-23 15:37:00,47.4,23.7,29.98,WNW,300,6.0,14.0,39,0.00,,---,0.00,722.00,VWS V14.00,2013-03-23 19:37:00,
2013-03-23 15:42:00,47.3,23.6,29.98,North,350,7.0,14.0,39,0.00,,---,0.00,705.00,VWS V14.00,2013-03-23 19:42:00,
2013-03-23 15:47:00,47.2,23.5,29.98,WNW,296,9.0,14.0,39,0.00,,---,0.00,687.00,VWS V14.00,2013-03-23 19:47:00,
2013-03-23 15:52:00,47.6,23.9,29.98,WNW,286,12.0,15.0,39,0.00,,---,0.00,675.00,VWS V14.00,2013-03-23 19:52:00,
2013-03-23 15:57:00,47.8,24.1,29.98,West,278,7.0,15.0,39,0.00,,---,0.00,654.00,VWS V14.00,2013-03-23 19:57:00,
2013-03-23 16:00:00,47.7,23.4,29.98,West,259,7.0,15.0,38,0.00,,---,0.00,654.00,VWS V14.00,2013-03-23 20:00:00,
2013-03-23 16:02:00,47.7,23.4,29.98,WNW,290,7.0,7.0,38,0.00,,---,0.00,645.00,VWS V14.00,2013-03-23 20:02:00,
2013-03-23 16:07:00,47.7,23.4,29.98,West,260,12.0,16.0,38,0.00,,---,0.00,635.00,VWS V14.00,2013-03-23 20:07:00,
2013-03-23 16:12:00,48.0,24.2,29.98,West,267,8.0,16.0,39,0.00,,---,0.00,622.00,VWS V14.00,2013-03-23 20:12:00,
2013-03-23 16:17:00,48.0,23.6,29.98,WSW,246,12.0,18.0,38,0.00,,---,0.00,605.00,VWS V14.00,2013-03-23 20:17:00,
2013-03-23 16:22:00,47.9,23.5,29.98,North,355,6.0,18.0,38,0.00,,---,0.00,598.00,VWS V14.00,2013-03-23 20:22:00,
2013-03-23 16:27:00,48.0,24.2,29.98,WNW,284,5.0,18.0,39,0.00,,---,0.00,573.00,VWS V14.00,2013-03-23 20:27:00,
2013-03-23 16:30:00,48.3,23.2,29.98,WNW,294,7.0,18.0,37,0.00,,---,0.00,563.00,VWS V14.00,2013-03-23 20:30:00,
2013-03-23 16:33:00,48.2,23.2,29.98,WNW,283,8.0,15.0,37,0.00,,---,0.00,563.00,VWS V14.00,2013-03-23 20:33:00,
2013-03-23 16:38:00,48.0,23.6,29.98,West,265,8.0,15.0,38,0.00,,---,0.00,548.00,VWS V14.00,2013-03-23 20:38:00,
2013-03-23 16:43:00,48.1,23.1,29.98,West,264,5.0,15.0,37,0.00,,---,0.00,531.00,VWS V14.00,2013-03-23 20:43:00,
2013-03-23 16:48:00,48.2,24.4,29.98,NNW,344,6.0,15.0,39,0.00,,---,0.00,519.00,VWS V14.00,2013-03-23 20:48:00,
2013-03-23 16:53:00,48.5,24.1,29.98,WNW,300,9.0,15.0,38,0.00,,---,0.00,501.00,VWS V14.00,2013-03-23 20:53:00,
2013-03-23 16:58:00,48.2,23.2,29.98,NW,311,5.0,16.0,37,0.00,,---,0.00,483.00,VWS V14.00,2013-03-23 20:58:00,
2013-03-23 17:00:00,48.2,23.2,29.98,NW,315,8.0,16.0,37,0.00,,---,0.00,476.00,VWS V14.00,2013-03-23 21:00:00,
2013-03-23 17:03:00,48.2,23.2,29.98,West,277,7.0,12.0,37,0.00,,---,0.00,466.00,VWS V14.00,2013-03-23 21:03:00,
2013-03-23 17:08:00,48.6,24.2,29.98,WNW,300,6.0,12.0,38,0.00,,---,0.00,454.00,VWS V14.00,2013-03-23 21:08:00,
2013-03-23 17:13:00,48.5,22.8,29.98,NW,321,4.0,12.0,36,0.00,,---,0.00,436.00,VWS V14.00,2013-03-23 21:13:00,
2013-03-23 17:18:00,48.1,23.1,29.98,WNW,297,9.0,15.0,37,0.00,,---,0.00,418.00,VWS V14.00,2013-03-23 21:18:00,
2013-03-23 17:23:00,47.9,23.5,29.98,NW,323,2.0,15.0,38,0.00,,---,0.00,403.00,VWS V14.00,2013-03-23 21:23:00,
2013-03-23 17:28:00,48.1,23.7,29.98,NW,304,2.0,15.0,38,0.00,,---,0.00,381.00,VWS V14.00,2013-03-23 21:28:00,
2013-03-23 17:30:00,48.2,23.2,29.98,NNW,346,8.0,15.0,37,0.00,,---,0.00,367.00,VWS V14.00,2013-03-23 21:30:00,
2013-03-23 17:33:00,48.0,23.0,29.98,NNW,348,7.0,10.0,37,0.00,,---,0.00,359.00,VWS V14.00,2013-03-23 21:33:00,
2013-03-23 17:38:00,47.9,23.5,29.98,NNW,342,7.0,12.0,38,0.00,,---,0.00,346.00,VWS V14.00,2013-03-23 21:38:00,
2013-03-23 17:43:00,47.7,23.4,29.98,WNW,294,5.0,12.0,38,0.00,,---,0.00,325.00,VWS V14.00,2013-03-23 21:43:00,
2013-03-23 17:48:00,47.7,24.0,29.98,WSW,245,4.0,12.0,39,0.00,,---,0.00,309.00,VWS V14.00,2013-03-23 21:48:00,
2013-03-23 17:53:00,47.8,23.4,29.98,WNW,302,0.0,12.0,38,0.00,,---,0.00,290.00,VWS V14.00,2013-03-23 21:53:00,
2013-03-23 17:58:00,47.8,22.8,29.98,WNW,291,7.0,12.0,37,0.00,,---,0.00,265.00,VWS V14.00,2013-03-23 21:58:00,
2013-03-23 18:00:00,47.7,23.4,29.98,WNW,284,5.0,12.0,38,0.00,,---,0.00,262.00,VWS V14.00,2013-03-23 22:00:00,
2013-03-23 18:04:00,47.5,23.2,29.98,NNW,344,4.0,8.0,38,0.00,,---,0.00,253.00,VWS V14.00,2013-03-23 22:04:00,
2013-03-23 18:09:00,47.5,23.2,29.98,West,280,6.0,12.0,38,0.00,,---,0.00,229.00,VWS V14.00,2013-03-23 22:09:00,
2013-03-23 18:14:00,47.3,23.0,29.98,NW,319,2.0,12.0,38,0.00,,---,0.00,206.00,VWS V14.00,2013-03-23 22:14:00,
2013-03-23 18:19:00,47.1,22.8,29.98,NW,306,2.0,12.0,38,0.00,,---,0.00,188.00,VWS V14.00,2013-03-23 22:19:00,
2013-03-23 18:24:00,47.0,22.7,29.98,NW,319,2.0,12.0,38,0.00,,---,0.00,169.00,VWS V14.00,2013-03-23 22:24:00,
2013-03-23 18:29:00,46.8,22.5,29.98,NNW,343,5.0,12.0,38,0.00,,---,0.00,149.00,VWS V14.00,2013-03-23 22:29:00,
2013-03-23 18:30:00,46.8,23.2,29.98,NNW,331,5.0,12.0,39,0.00,,---,0.00,137.00,VWS V14.00,2013-03-23 22:30:00,
2013-03-23 18:34:00,46.7,23.1,29.98,WNW,300,5.0,9.0,39,0.00,,---,0.00,128.00,VWS V14.00,2013-03-23 22:34:00,
2013-03-23 18:39:00,46.4,22.8,29.98,NNW,328,5.0,10.0,39,0.00,,---,0.00,107.00,VWS V14.00,2013-03-23 22:39:00,
2013-03-23 18:44:00,46.1,22.5,29.98,WNW,297,2.0,10.0,39,0.00,,---,0.00,90.00,VWS V14.00,2013-03-23 22:44:00,
2013-03-23 18:49:00,46.0,23.0,29.98,NW,313,0.0,10.0,40,0.00,,---,0.00,74.00,VWS V14.00,2013-03-23 22:49:00,
2013-03-23 18:54:00,45.8,23.5,29.98,NNW,337,2.0,10.0,41,0.00,,---,0.00,60.00,VWS V14.00,2013-03-23 22:54:00,
2013-03-23 18:59:00,45.7,23.9,29.98,NNE,24,4.0,10.0,42,0.00,,---,0.00,47.00,VWS V14.00,2013-03-23 22:59:00,
2013-03-23 19:00:00,45.6,23.9,29.98,NNE,26,2.0,10.0,42,0.00,,---,0.00,42.00,VWS V14.00,2013-03-23 23:00:00,
2013-03-23 19:04:00,45.4,23.7,29.97,NE,36,6.0,6.0,42,0.00,,---,0.00,35.00,VWS V14.00,2013-03-23 23:04:00,
2013-03-23 19:09:00,45.1,24.0,29.97,NNW,328,1.0,6.0,43,0.00,,---,0.00,25.00,VWS V14.00,2013-03-23 23:09:00,
2013-03-23 19:14:00,44.7,23.6,29.97,North,9,3.0,8.0,43,0.00,,---,0.00,19.00,VWS V14.00,2013-03-23 23:14:00,
2013-03-23 19:19:00,44.5,23.4,29.97,NNE,21,1.0,8.0,43,0.00,,---,0.00,16.00,VWS V14.00,2013-03-23 23:19:00,
2013-03-23 19:24:00,44.0,23.5,29.98,NNW,339,1.0,8.0,44,0.00,,---,0.00,12.00,VWS V14.00,2013-03-23 23:24:00,
2013-03-23 19:29:00,43.7,23.2,29.98,NNW,345,0.0,8.0,44,0.00,,---,0.00,9.00,VWS V14.00,2013-03-23 23:29:00,
2013-03-23 19:30:00,43.6,23.1,29.98,NNW,345,0.0,8.0,44,0.00,,---,0.00,7.00,VWS V14.00,2013-03-23 23:30:00,
2013-03-23 19:34:00,43.3,23.4,29.98,NNW,345,0.0,1.0,45,0.00,,---,0.00,5.00,VWS V14.00,2013-03-23 23:34:00,
2013-03-23 19:39:00,42.8,23.0,29.98,North,9,1.0,3.0,45,0.00,,---,0.00,0.00,VWS V14.00,2013-03-23 23:39:00,
2013-03-23 19:44:00,42.5,23.2,29.98,North,9,0.0,3.0,46,0.00,,---,0.00,0.00,VWS V14.00,2013-03-23 23:44:00,
2013-03-23 19:49:00,42.2,22.9,29.99,North,360,0.0,3.0,46,0.00,,---,0.00,0.00,VWS V14.00,2013-03-23 23:49:00,
2013-03-23 19:54:00,41.8,23.1,29.99,North,360,0.0,3.0,47,0.00,,---,0.00,0.00,VWS V14.00,2013-03-23 23:54:00,
2013-03-23 19:59:00,41.3,22.6,29.99,North,360,2.0,3.0,47,0.00,,---,0.00,0.00,VWS V14.00,2013-03-23 23:59:00,
2013-03-23 20:00:00,41.1,22.9,29.99,North,355,0.0,4.0,48,0.00,,---,0.00,0.00,VWS V14.00,2013-03-24 00:00:00,
2013-03-23 20:04:00,40.9,22.7,29.99,North,5,0.0,2.0,48,0.00,,---,0.00,0.00,VWS V14.00,2013-03-24 00:04:00,
2013-03-23 20:09:00,40.6,23.0,29.99,NNE,26,0.0,3.0,49,0.00,,---,0.00,0.00,VWS V14.00,2013-03-24 00:09:00,
2013-03-23 20:14:00,40.2,23.1,30.00,NNE,26,0.0,3.0,50,0.00,,---,0.00,0.00,VWS V14.00,2013-03-24 00:14:00,
2013-03-23 20:19:00,39.9,23.3,29.99,NNE,28,0.0,4.0,51,0.00,,---,0.00,0.00,VWS V14.00,2013-03-24 00:19:00,
2013-03-23 20:24:00,40.0,23.4,30.00,NNW,338,0.0,5.0,51,0.00,,---,0.00,0.00,VWS V14.00,2013-03-24 00:24:00,
2013-03-23 20:29:00,40.0,23.4,30.00,NNW,338,0.0,5.0,51,0.00,,---,0.00,0.00,VWS V14.00,2013-03-24 00:29:00,
2013-03-23 20:30:00,39.9,23.2,30.00,NNW,340,1.0,5.0,51,0.00,,---,0.00,0.00,VWS V14.00,2013-03-24 00:30:00,
2013-03-23 20:34:00,39.9,23.7,30.00,NE,37,0.0,5.0,52,0.00,,---,0.00,0.00,VWS V14.00,2013-03-24 00:34:00,
2013-03-23 20:39:00,39.7,23.5,30.00,NNE,26,1.0,5.0,52,0.00,,---,0.00,0.00,VWS V14.00,2013-03-24 00:39:00,
2013-03-23 20:44:00,39.6,23.4,30.00,NNE,24,3.0,5.0,52,0.00,,---,0.00,0.00,VWS V14.00,2013-03-24 00:44:00,
2013-03-23 20:50:00,39.5,23.8,30.00,NNE,27,3.0,5.0,53,0.00,,---,0.00,0.00,VWS V14.00,2013-03-24 00:50:00,
2013-03-23 20:55:00,39.3,23.6,30.01,NNE,23,0.0,5.0,53,0.00,,---,0.00,0.00,VWS V14.00,2013-03-24 00:55:00,
2013-03-23 21:00:00,39.2,23.5,30.00,NNE,26,1.0,5.0,53,0.00,,---,0.00,0.00,VWS V14.00,2013-03-24 01:00:00,
2013-03-23 21:05:00,38.9,23.7,30.00,NNE,26,0.0,3.0,54,0.00,,---,0.00,0.00,VWS V14.00,2013-03-24 01:05:00,
2013-03-23 21:10:00,38.6,23.8,30.01,NE,42,1.0,4.0,55,0.00,,---,0.00,0.00,VWS V14.00,2013-03-24 01:10:00,
2013-03-23 21:15:00,38.3,24.0,30.01,NE,36,2.0,4.0,56,0.00,,---,0.00,0.00,VWS V14.00,2013-03-24 01:15:00,
2013-03-23 21:20:00,38.0,24.1,30.01,NE,42,1.0,5.0,57,0.00,,---,0.00,0.00,VWS V14.00,2013-03-24 01:20:00,
2013-03-23 21:25:00,37.9,24.0,30.01,NNE,27,2.0,5.0,57,0.00,,---,0.00,0.00,VWS V14.00,2013-03-24 01:25:00,
2013-03-23 21:30:00,37.8,24.4,30.01,NE,38,0.0,5.0,58,0.00,,---,0.00,0.00,VWS V14.00,2013-03-24 01:30:00,
2013-03-23 21:35:00,37.7,24.3,30.02,NNE,24,0.0,3.0,58,0.00,,---,0.00,0.00,VWS V14.00,2013-03-24 01:35:00,
2013-03-23 21:40:00,37.3,23.9,30.02,NNE,30,3.0,3.0,58,0.00,,---,0.00,0.00,VWS V14.00,2013-03-24 01:40:00,
2013-03-23 21:45:00,37.0,24.4,30.02,NNE,32,3.0,5.0,60,0.00,,---,0.00,0.00,VWS V14.00,2013-03-24 01:45:00,
2013-03-23 21:50:00,36.9,24.7,30.02,NE,38,1.0,5.0,61,0.00,,---,0.00,0.00,VWS V14.00,2013-03-24 01:50:00,
2013-03-23 21:55:00,36.8,24.6,30.02,NE,51,3.0,6.0,61,0.00,,---,0.00,0.00,VWS V14.00,2013-03-24 01:55:00,
2013-03-23 22:00:00,36.7,24.9,30.02,NE,35,3.0,7.0,62,0.00,,---,0.00,0.00,VWS V14.00,2013-03-24 02:00:00,
2013-03-23 22:05:00,36.7,24.9,30.02,NNE,28,1.0,4.0,62,0.00,,---,0.00,0.00,VWS V14.00,2013-03-24 02:05:00,
2013-03-23 22:10:00,36.4,24.6,30.02,NE,35,1.0,4.0,62,0.00,,---,0.00,0.00,VWS V14.00,2013-03-24 02:10:00,
2013-03-23 22:15:00,36.4,25.0,30.02,NE,42,3.0,6.0,63,0.00,,---,0.00,0.00,VWS V14.00,2013-03-24 02:15:00,
2013-03-23 22:20:00,36.2,24.5,30.02,NE,55,0.0,6.0,62,0.00,,---,0.00,0.00,VWS V14.00,2013-03-24 02:20:00,
2013-03-23 22:25:00,35.9,24.5,30.02,NE,55,0.0,6.0,63,0.00,,---,0.00,0.00,VWS V14.00,2013-03-24 02:25:00,
2013-03-23 22:30:00,35.8,24.5,30.02,NE,48,0.0,6.0,63,0.00,,---,0.00,0.00,VWS V14.00,2013-03-24 02:30:00,
2013-03-23 22:35:00,35.5,24.2,30.02,NE,48,0.0,1.0,63,0.00,,---,0.00,0.00,VWS V14.00,2013-03-24 02:35:00,
2013-03-23 22:40:00,35.3,24.4,30.02,NE,48,0.0,1.0,64,0.00,,---,0.00,0.00,VWS V14.00,2013-03-24 02:40:00,
2013-03-23 22:45:00,35.0,24.1,30.02,NE,48,0.0,1.0,64,0.00,,---,0.00,0.00,VWS V14.00,2013-03-24 02:45:00,
2013-03-23 22:50:00,34.6,24.1,30.02,NE,48,0.0,1.0,65,0.00,,---,0.00,0.00,VWS V14.00,2013-03-24 02:50:00,
2013-03-23 22:55:00,34.3,23.8,30.02,NE,48,0.0,1.0,65,0.00,,---,0.00,0.00,VWS V14.00,2013-03-24 02:55:00,
2013-03-23 23:00:00,33.8,23.7,30.02,NE,48,0.0,1.0,66,0.00,,---,0.00,0.00,VWS V14.00,2013-03-24 03:00:00,
2013-03-23 23:05:00,33.4,23.6,30.02,NE,48,1.0,2.0,67,0.00,,---,0.00,0.00,VWS V14.00,2013-03-24 03:05:00,
2013-03-23 23:10:00,33.2,23.8,30.01,NE,51,0.0,3.0,68,0.00,,---,0.00,0.00,VWS V14.00,2013-03-24 03:10:00,
2013-03-23 23:15:00,33.0,23.6,30.01,NE,51,2.0,3.0,68,0.00,,---,0.00,0.00,VWS V14.00,2013-03-24 03:15:00,
2013-03-23 23:20:00,33.0,24.0,30.00,NE,51,2.0,3.0,69,0.00,,---,0.00,0.00,VWS V14.00,2013-03-24 03:20:00,
2013-03-23 23:25:00,33.2,23.8,30.00,NE,38,1.0,4.0,68,0.00,,---,0.00,0.00,VWS V14.00,2013-03-24 03:25:00,
2013-03-23 23:30:00,33.4,24.0,30.00,NE,48,1.0,6.0,68,0.00,,---,0.00,0.00,VWS V14.00,2013-03-24 03:30:00,
2013-03-23 23:35:00,33.4,24.0,30.00,NE,40,0.0,2.0,68,0.00,,---,0.00,0.00,VWS V14.00,2013-03-24 03:35:00,
2013-03-23 23:40:00,33.2,23.8,30.00,NE,40,2.0,2.0,68,0.00,,---,0.00,0.00,VWS V14.00,2013-03-24 03:40:00,
2013-03-23 23:45:00,33.0,23.6,30.00,NE,35,2.0,2.0,68,0.00,,---,0.00,0.00,VWS V14.00,2013-03-24 03:45:00,
2013-03-23 23:50:00,33.0,23.6,29.99,NNE,33,2.0,4.0,68,0.00,,---,0.00,0.00,VWS V14.00,2013-03-24 03:50:00,
2013-03-23 23:55:00,33.1,23.7,29.99,NE,42,2.0,4.0,68,0.00,,---,0.00,0.00,VWS V14.00,2013-03-24 03:55:00,